Time;durP1;ratioP1;P1;durP2;ratioP2;P2;SDS_P1;SDS_P2;PMS_P1;PMS_P2;Temp;Humidity;BMP_temperature;BMP_pressure;BME280_temperature;BME280_humidity;BME280_pressure;Samples;Min_cycle;Max_cycle;Signal;HPM_P1;HPM_P2
2023/07/08 00:13:28;;;;;;;16.17;9.77;;;;;;;28.92;100.00;99338.31;30852337;28;20057;-76
2023/07/08 00:28:30;;;;;;;20.45;8.95;;;;;;;28.87;100.00;99337.19;30852712;28;20401;-78
2023/07/08 00:43:39;;;;;;;13.50;7.82;;;;;;;28.79;100.00;99303.69;30857347;28;20050;-75
2023/07/08 00:58:49;;;;;;;11.32;6.18;;;;;;;28.76;100.00;99262.94;30845316;28;20449;-78
2023/07/08 01:13:51;;;;;;;10.82;5.68;;;;;;;28.65;100.00;99254.97;30854277;28;20492;-76
2023/07/08 01:28:54;;;;;;;;;;;;;;;28.83;100.00;99251.00;30846926;28;20118;-76
2023/07/08 01:43:56;;;;;;;5.07;4.00;;;;;;;28.61;100.00;99237.84;30849038;28;21684;-77
2023/07/08 01:58:58;;;;;;;6.10;4.10;;;;;;;28.60;100.00;99236.34;30844388;28;20053;-77
2023/07/08 02:14:01;;;;;;;7.80;4.10;;;;;;;28.67;100.00;99235.59;30838421;28;20047;-77
2023/07/08 02:29:03;;;;;;;6.40;3.95;;;;;;;28.50;100.00;99247.41;30837836;28;20058;-77
2023/07/08 02:44:05;;;;;;;5.97;4.13;;;;;;;28.61;100.00;99223.88;30846345;28;20049;-76
2023/07/08 02:59:07;;;;;;;4.18;3.50;;;;;;;28.89;100.00;99238.88;30842397;28;20054;-79
2023/07/08 03:14:09;;;;;;;5.25;3.50;;;;;;;28.72;100.00;99220.69;30857929;28;20122;-77
2023/07/08 03:29:15;;;;;;;6.23;3.87;;;;;;;28.86;100.00;99218.41;30877087;28;20050;-77
2023/07/08 03:44:17;;;;;;;6.95;4.35;;;;;;;29.18;100.00;99220.47;30899404;28;20340;-78
2023/07/08 03:59:19;;;;;;;6.10;4.70;;;;;;;29.19;100.00;99233.13;30869518;28;20181;-75
2023/07/08 04:14:21;;;;;;;;;;;;;;;29.54;100.00;99228.41;30873188;28;20047;-75
2023/07/08 04:29:24;;;;;;;9.13;4.80;;;;;;;29.50;100.00;99228.09;30862680;28;19958;-77
2023/07/08 04:44:27;;;;;;;12.95;5.25;;;;;;;29.82;100.00;99247.59;30858351;28;20055;-77
2023/07/08 04:59:34;;;;;;;6.25;4.88;;;;;;;30.16;100.00;99252.53;30860057;28;20428;-77
2023/07/08 05:14:36;;;;;;;5.95;4.93;;;;;;;31.39;97.65;99269.34;30849369;28;20519;-77
2023/07/08 05:29:38;;;;;;;7.88;4.80;;;;;;;31.60;93.42;99262.50;30846462;28;20204;-76
2023/07/08 05:44:40;;;;;;;7.90;5.05;;;;;;;32.76;84.90;99260.66;30870164;28;20134;-76
2023/07/08 05:59:45;;;;;;;7.72;5.47;;;;;;;32.73;83.28;99239.31;30869253;28;20499;-77
2023/07/08 06:14:47;;;;;;;7.05;4.80;;;;;;;32.44;82.16;99214.81;30868056;28;20133;-77
2023/07/08 06:29:49;;;;;;;17.05;4.38;;;;;;;33.30;78.25;99210.38;30862350;28;20137;-75
2023/07/08 06:44:51;;;;;;;9.70;4.80;;;;;;;33.45;73.99;99195.19;30872999;28;20042;-76
2023/07/08 06:59:54;;;;;;;9.90;4.22;;;;;;;33.91;71.81;99203.25;30880913;28;20057;-77
2023/07/08 07:14:56;;;;;;;10.40;4.53;;;;;;;34.84;67.06;99186.72;30886383;28;20070;-79
2023/07/08 07:29:59;;;;;;;8.68;4.07;;;;;;;35.89;61.92;99208.59;30882300;28;20063;-80
2023/07/08 07:45:01;;;;;;;8.48;3.92;;;;;;;36.43;59.75;99213.81;30880028;28;20081;-76
2023/07/08 08:00:04;;;;;;;10.70;5.68;;;;;;;36.55;59.13;99225.06;30881026;28;20051;-77
2023/07/08 08:15:06;;;;;;;13.40;3.92;;;;;;;37.31;55.62;99239.16;30876728;28;20086;-78
2023/07/08 08:30:09;;;;;;;7.47;4.10;;;;;;;37.99;53.23;99252.59;30866376;28;20137;-77
2023/07/08 08:45:16;;;;;;;9.32;3.75;;;;;;;38.63;50.46;99248.69;30875185;28;20042;-77
2023/07/08 09:00:25;;;;;;;10.52;4.60;;;;;;;37.81;50.93;99248.81;30879777;28;20196;-78
2023/07/08 09:15:27;;;;;;;8.40;3.80;;;;;;;38.36;51.61;99231.75;30870804;28;20089;-77
2023/07/08 09:30:30;;;;;;;9.40;3.90;;;;;;;39.03;47.52;99229.25;30867203;28;20552;-77
2023/07/08 09:45:47;;;;;;;8.40;3.20;;;;;;;39.85;46.23;99211.59;30870128;28;20047;-79
2023/07/08 10:00:55;;;;;;;8.23;2.80;;;;;;;40.74;44.65;99180.41;30865502;28;20054;-78
2023/07/08 10:16:15;;;;;;;5.88;2.65;;;;;;;41.52;42.42;99173.28;30861278;28;20054;-75
2023/07/08 10:31:47;;;;;;;8.23;3.05;;;;;;;41.26;40.55;99183.75;30862248;28;20094;-76
2023/07/08 10:47:30;;;;;;;6.25;2.13;;;;;;;41.10;38.72;99155.41;30857936;28;20042;-76
2023/07/08 11:03:16;;;;;;;9.30;2.42;;;;;;;39.13;41.16;99148.19;30850262;28;20062;-76
2023/07/08 11:18:30;;;;;;;5.00;3.03;;;;;;;38.11;40.59;99165.38;30848995;28;20047;-77
2023/07/08 11:33:34;;;;;;;6.72;2.40;;;;;;;37.52;42.07;99202.06;30869371;28;20068;-79
2023/07/08 11:48:43;;;;;;;7.97;3.00;;;;;;;36.55;44.26;99196.81;30882979;28;20049;-77
2023/07/08 12:03:51;;;;;;;8.87;2.90;;;;;;;36.17;46.03;99165.00;30878671;28;20050;-77
2023/07/08 12:18:56;;;;;;;4.53;3.58;;;;;;;35.93;47.29;99168.53;30874239;28;20047;-76
2023/07/08 12:33:59;;;;;;;9.57;3.65;;;;;;;35.99;48.69;99161.16;30872299;28;20054;-77
2023/07/08 12:49:01;;;;;;;11.75;3.60;;;;;;;35.84;49.06;99167.34;30872284;28;20089;-78
2023/07/08 13:04:09;;;;;;;8.27;3.85;;;;;;;35.95;50.14;99172.22;30870892;28;20050;-76
2023/07/08 13:19:13;;;;;;;5.88;3.33;;;;;;;35.83;52.01;99186.38;30866271;28;20050;-78
2023/07/08 13:34:18;;;;;;;12.23;4.75;;;;;;;35.38;52.63;99183.00;30859859;28;20047;-77
2023/07/08 13:49:41;;;;;;;37.15;19.73;;;;;;;35.25;50.16;99161.00;30862146;28;20054;-78
2023/07/08 14:04:43;;;;;;;10.10;3.70;;;;;;;35.01;50.55;99139.78;30861653;28;20564;-78
2023/07/08 14:19:45;;;;;;;5.93;3.03;;;;;;;35.04;50.59;99102.66;30865520;28;20082;-75
2023/07/08 14:34:55;;;;;;;53.13;15.13;;;;;;;34.54;47.92;99126.34;30863741;28;20082;-77
2023/07/08 14:49:58;;;;;;;12.20;3.83;;;;;;;34.69;47.93;99149.78;30865693;28;20765;-78
2023/07/08 15:05:01;;;;;;;8.68;4.50;;;;;;;34.41;48.81;99134.66;30864991;28;20451;-78
2023/07/08 15:20:09;;;;;;;7.05;3.15;;;;;;;34.57;49.12;99163.13;30877057;28;21358;-76
2023/07/08 15:35:17;;;;;;;8.93;2.80;;;;;;;34.12;49.43;99166.63;30879103;28;20066;-77
2023/07/08 15:50:23;;;;;;;7.53;2.75;;;;;;;33.97;49.72;99192.38;30877118;28;20059;-76
2023/07/08 16:05:25;;;;;;;23.63;10.38;;;;;;;33.62;52.06;99211.81;30868769;28;20453;-77
2023/07/08 16:20:29;;;;;;;6.80;4.97;;;;;;;32.77;60.45;99205.94;30875606;28;20090;-78
2023/07/08 16:35:31;;;;;;;10.20;5.45;;;;;;;32.31;66.24;99211.72;30871530;28;20098;-77
2023/07/08 16:50:34;;;;;;;6.13;4.47;;;;;;;32.15;70.82;99189.50;30872476;28;20477;-77
2023/07/08 17:05:36;;;;;;;8.38;4.38;;;;;;;31.75;74.85;99175.31;30861458;28;20138;-76
2023/07/08 17:20:39;;;;;;;9.05;4.18;;;;;;;31.51;74.67;99197.38;30870627;28;20059;-78
2023/07/08 17:35:41;;;;;;;10.32;4.90;;;;;;;31.22;77.86;99227.34;30869131;28;20078;-76
2023/07/08 17:50:42;;;;;;;8.60;3.55;;;;;;;30.61;83.84;99238.63;30866599;28;20142;-77
2023/07/08 18:05:44;;;;;;;8.23;3.25;;;;;;;29.98;91.56;99214.66;30864766;28;20073;-77
2023/07/08 18:20:52;;;;;;;4.97;2.30;;;;;;;29.75;94.04;99212.03;30863960;28;20538;-76
2023/07/08 18:35:54;;;;;;;3.63;2.67;;;;;;;29.65;92.53;99227.22;30861936;28;20050;-75
2023/07/08 18:50:57;;;;;;;;;;;;;;;29.55;92.04;99195.59;30885171;28;20376;-78
2023/07/08 19:05:59;;;;;;;5.77;2.37;;;;;;;29.32;94.23;99188.13;30887426;28;19981;-78
2023/07/08 19:21:01;;;;;;;6.38;3.42;;;;;;;29.97;92.95;99173.97;30881649;28;20050;-77
2023/07/08 19:36:05;;;;;;;5.60;3.90;;;;;;;29.90;95.93;99174.03;30880092;28;20126;-77
2023/07/08 19:51:07;;;;;;;7.93;3.42;;;;;;;29.63;99.63;99166.28;30888628;28;20055;-77
2023/07/08 20:06:10;;;;;;;;;;;;;;;29.55;100.00;99134.84;30882070;28;20146;-78
2023/07/08 20:21:13;;;;;;;7.80;3.50;;;;;;;29.51;100.00;99118.50;30879987;28;19921;-79
2023/07/08 20:36:18;;;;;;;12.23;4.90;;;;;;;29.42;100.00;99107.94;30868879;28;20498;-76
2023/07/08 20:51:20;;;;;;;12.27;4.20;;;;;;;29.24;100.00;99088.91;30874468;28;20054;-79
2023/07/08 21:06:25;;;;;;;8.65;5.00;;;;;;;29.18;100.00;99072.38;30873587;28;20042;-76
2023/07/08 21:21:27;;;;;;;12.60;6.88;;;;;;;29.03;100.00;99047.34;30868988;28;20067;-78
2023/07/08 21:36:36;;;;;;;9.60;6.53;;;;;;;28.91;100.00;99018.41;30865939;28;20075;-76
2023/07/08 21:51:39;;;;;;;9.52;5.70;;;;;;;28.74;100.00;99011.44;30866255;28;20400;-77
2023/07/08 22:06:41;;;;;;;9.65;6.20;;;;;;;28.60;100.00;98989.94;30868065;28;20137;-75
2023/07/08 22:21:43;;;;;;;15.43;7.18;;;;;;;28.68;100.00;99024.13;30864340;28;20096;-77
2023/07/08 22:36:46;;;;;;;13.33;6.90;;;;;;;28.67;100.00;99051.31;30855777;28;20090;-76
2023/07/08 22:51:51;;;;;;;10.00;4.10;;;;;;;27.95;100.00;99046.47;30863782;28;20139;-77
2023/07/08 23:06:53;;;;;;;7.50;3.70;;;;;;;27.14;100.00;98972.38;30866193;28;20059;-75
2023/07/08 23:21:55;;;;;;;5.37;3.93;;;;;;;26.87;100.00;98904.47;30863600;28;20108;-76
2023/07/08 23:37:03;;;;;;;5.47;3.90;;;;;;;26.73;100.00;98868.47;30882879;28;20046;-76
2023/07/08 23:52:13;;;;;;;8.10;4.13;;;;;;;26.90;100.00;98856.00;30875498;28;20073;-75
